createdAt,value
2019-02-22T00:00:04.150Z,3.70
2019-02-22T00:01:04.143Z,3.80
2019-02-22T00:02:04.127Z,3.80
2019-02-22T00:03:04.129Z,3.70
2019-02-22T00:04:04.107Z,3.80
2019-02-22T00:05:04.102Z,3.80
2019-02-22T00:06:04.088Z,3.90
2019-02-22T00:07:04.073Z,3.70
2019-02-22T00:08:04.108Z,3.70
2019-02-22T00:09:04.052Z,3.80
2019-02-22T00:10:04.228Z,3.70
2019-02-22T00:11:04.032Z,3.80
2019-02-22T00:12:04.020Z,3.70
2019-02-22T00:13:04.008Z,3.80
2019-02-22T00:14:04.002Z,3.50
2019-02-22T00:15:04.006Z,3.20
2019-02-22T00:16:03.978Z,3.30
2019-02-22T00:17:03.967Z,3.40
2019-02-22T00:18:03.955Z,3.40
2019-02-22T00:19:03.967Z,4.00
2019-02-22T00:20:03.940Z,3.20
2019-02-22T00:21:03.927Z,3.60
2019-02-22T00:22:03.919Z,3.20
2019-02-22T00:23:03.911Z,3.30
2019-02-22T00:24:03.896Z,3.60
2019-02-22T00:25:03.881Z,3.80
2019-02-22T00:26:03.879Z,3.70
2019-02-22T00:27:03.912Z,3.50
2019-02-22T00:28:03.854Z,3.80
2019-02-22T00:29:03.844Z,3.80
2019-02-22T00:30:03.829Z,3.60
2019-02-22T00:31:03.823Z,3.60
2019-02-22T00:32:03.807Z,3.60
2019-02-22T00:33:03.796Z,3.30
2019-02-22T00:34:03.817Z,3.60
2019-02-22T00:35:03.873Z,3.60
2019-02-22T00:36:03.818Z,3.30
2019-02-22T00:37:03.867Z,3.50
2019-02-22T00:38:03.752Z,3.50
2019-02-22T00:39:03.732Z,3.50
2019-02-22T00:40:03.723Z,3.30
2019-02-22T00:41:03.720Z,3.50
2019-02-22T00:42:03.697Z,3.10
2019-02-22T00:43:03.692Z,3.30
2019-02-22T00:44:03.678Z,3.00
2019-02-22T00:45:03.669Z,5.70
2019-02-22T00:46:03.676Z,3.40
2019-02-22T00:47:04.093Z,3.70
2019-02-22T00:48:03.638Z,3.90
2019-02-22T00:49:03.634Z,4.10
2019-02-22T00:50:03.639Z,4.50
2019-02-22T00:51:03.602Z,4.30
2019-02-22T00:52:03.603Z,3.80
2019-02-22T00:53:03.583Z,4.10
2019-02-22T00:54:03.574Z,4.70
2019-02-22T00:55:03.572Z,4.20
2019-02-22T00:56:03.785Z,4.10
2019-02-22T00:57:03.685Z,4.20
2019-02-22T00:58:03.628Z,4.10
2019-02-22T00:59:03.519Z,4.50
2019-02-22T01:00:03.515Z,4.20
2019-02-22T01:01:03.518Z,4.30
2019-02-22T01:02:03.486Z,4.10
2019-02-22T01:03:03.482Z,3.70
2019-02-22T01:04:03.619Z,4.00
2019-02-22T01:05:03.451Z,3.70
2019-02-22T01:06:03.444Z,3.50
2019-02-22T01:07:03.441Z,4.00
2019-02-22T01:08:03.468Z,4.40
2019-02-22T01:09:03.421Z,3.60
2019-02-22T01:10:03.401Z,3.30
2019-02-22T01:11:03.387Z,3.80
2019-02-22T01:12:03.385Z,3.30
2019-02-22T01:13:03.369Z,3.80
2019-02-22T01:14:03.356Z,3.90
2019-02-22T01:15:03.351Z,3.50
2019-02-22T01:16:03.351Z,3.40
2019-02-22T01:17:03.333Z,3.20
2019-02-22T01:18:03.323Z,3.80
2019-02-22T01:19:03.302Z,3.90
2019-02-22T01:20:03.293Z,3.80
2019-02-22T01:21:03.283Z,3.30
2019-02-22T01:22:03.420Z,3.40
2019-02-22T01:23:03.259Z,3.50
2019-02-22T01:24:03.266Z,4.20
2019-02-22T01:25:03.243Z,3.50
2019-02-22T01:26:03.229Z,3.70
2019-02-22T01:27:03.224Z,3.70
2019-02-22T01:28:03.208Z,3.80
2019-02-22T01:29:03.198Z,3.40
2019-02-22T01:30:03.188Z,3.20
2019-02-22T01:31:03.182Z,3.40
2019-02-22T01:32:03.165Z,3.30
2019-02-22T01:33:03.156Z,3.30
2019-02-22T01:34:03.150Z,3.30
2019-02-22T01:35:03.139Z,3.30
2019-02-22T01:36:03.128Z,3.40
2019-02-22T01:37:03.112Z,3.30
2019-02-22T01:38:03.116Z,3.10
2019-02-22T01:39:03.113Z,3.50
2019-02-22T01:40:03.094Z,3.40
2019-02-22T01:41:03.080Z,3.70
2019-02-22T01:42:03.055Z,3.30
2019-02-22T01:43:03.044Z,2.60
2019-02-22T01:44:03.036Z,2.60
2019-02-22T01:45:03.172Z,2.80
2019-02-22T01:46:03.015Z,3.20
2019-02-22T01:47:03.105Z,3.30
2019-02-22T01:48:02.992Z,3.30
2019-02-22T01:49:02.984Z,3.10
2019-02-22T01:50:02.969Z,3.10
2019-02-22T01:51:02.984Z,3.30
2019-02-22T01:52:02.968Z,3.80
2019-02-22T01:53:02.942Z,2.80
2019-02-22T01:54:02.931Z,2.90
2019-02-22T01:55:02.928Z,3.20
2019-02-22T01:56:02.917Z,3.10
2019-02-22T01:57:02.900Z,3.00
2019-02-22T01:58:02.895Z,3.10
2019-02-22T01:59:02.876Z,2.80
2019-02-22T02:00:02.867Z,3.00
2019-02-22T02:01:02.861Z,2.90
2019-02-22T02:02:02.849Z,3.00
2019-02-22T02:03:02.829Z,3.20
2019-02-22T02:04:02.820Z,2.90
2019-02-22T02:05:02.821Z,3.20
2019-02-22T02:06:02.798Z,3.50
2019-02-22T02:07:02.790Z,2.90
2019-02-22T02:08:02.772Z,3.40
2019-02-22T02:09:02.766Z,3.10
2019-02-22T02:10:02.752Z,3.20
2019-02-22T02:11:02.743Z,3.10
2019-02-22T02:12:02.729Z,2.90
2019-02-22T02:13:02.716Z,3.10
2019-02-22T02:14:02.717Z,3.10
2019-02-22T02:15:02.696Z,3.20
2019-02-22T02:16:02.689Z,2.80
2019-02-22T02:17:02.674Z,3.10
2019-02-22T02:18:02.665Z,3.30
2019-02-22T02:19:02.687Z,3.10
2019-02-22T02:20:02.665Z,3.20
2019-02-22T02:21:02.634Z,3.10
2019-02-22T02:22:02.627Z,2.90
2019-02-22T02:23:02.609Z,2.80
2019-02-22T02:24:02.600Z,2.90
2019-02-22T02:25:02.591Z,2.80
2019-02-22T02:26:02.603Z,2.80
2019-02-22T02:27:02.566Z,3.00
2019-02-22T02:28:02.560Z,3.30
2019-02-22T02:29:02.545Z,2.30
2019-02-22T02:30:02.535Z,2.70
2019-02-22T02:31:02.533Z,2.90
2019-02-22T02:32:02.510Z,2.40
2019-02-22T02:33:02.512Z,2.60
2019-02-22T02:34:02.489Z,2.60
2019-02-22T02:35:02.490Z,2.90
2019-02-22T02:36:02.469Z,2.80
2019-02-22T02:37:02.478Z,2.80
2019-02-22T02:38:02.461Z,2.80
2019-02-22T02:39:02.441Z,2.80
2019-02-22T02:40:02.425Z,2.80
2019-02-22T02:41:09.964Z,2.80
2019-02-22T02:42:03.430Z,2.60
2019-02-22T02:43:02.416Z,2.60
2019-02-22T02:44:02.390Z,2.70
2019-02-22T02:45:02.371Z,2.60
2019-02-22T02:46:02.367Z,2.40
2019-02-22T02:47:02.349Z,2.70
2019-02-22T02:48:02.350Z,2.70
2019-02-22T02:49:02.355Z,2.70
2019-02-22T02:50:02.319Z,2.80
2019-02-22T02:51:02.313Z,2.70
2019-02-22T02:52:02.296Z,2.70
2019-02-22T02:53:02.295Z,2.50
2019-02-22T02:54:02.279Z,2.80
2019-02-22T02:55:02.287Z,2.80
2019-02-22T02:56:02.266Z,2.80
2019-02-22T02:57:02.260Z,2.50
2019-02-22T02:58:02.237Z,2.90
2019-02-22T02:59:02.224Z,2.10
2019-02-22T03:00:02.222Z,2.40
2019-02-22T03:01:02.197Z,2.40
2019-02-22T03:02:02.193Z,2.70
2019-02-22T03:03:02.182Z,2.30
2019-02-22T03:04:02.173Z,2.40
2019-02-22T03:05:02.163Z,2.30
2019-02-22T03:06:02.154Z,2.70
2019-02-22T03:07:02.134Z,2.50
2019-02-22T03:08:02.120Z,2.50
2019-02-22T03:09:02.111Z,2.10
2019-02-22T03:10:02.099Z,2.60
2019-02-22T03:11:02.091Z,2.50
2019-02-22T03:12:02.100Z,2.60
2019-02-22T03:13:02.064Z,2.50
2019-02-22T03:14:02.059Z,2.20
2019-02-22T03:15:02.050Z,2.20
2019-02-22T03:16:02.032Z,2.50
2019-02-22T03:17:02.033Z,2.40
2019-02-22T03:18:02.015Z,2.30
2019-02-22T03:19:02.004Z,2.40
2019-02-22T03:20:01.990Z,2.50
2019-02-22T03:21:01.978Z,2.20
2019-02-22T03:22:01.973Z,2.50
2019-02-22T03:23:01.956Z,2.30
2019-02-22T03:24:01.946Z,2.20
2019-02-22T03:25:01.943Z,2.20
2019-02-22T03:26:01.932Z,2.20
2019-02-22T03:27:01.914Z,2.10
2019-02-22T03:28:01.903Z,2.10
2019-02-22T03:29:01.892Z,2.40
2019-02-22T03:30:01.881Z,2.30
2019-02-22T03:31:01.892Z,2.20
2019-02-22T03:32:01.878Z,2.20
2019-02-22T03:33:01.849Z,2.30
2019-02-22T03:34:01.862Z,2.30
2019-02-22T03:35:01.830Z,2.20
2019-02-22T03:36:01.814Z,2.00
2019-02-22T03:37:01.810Z,2.20
2019-02-22T03:38:01.796Z,2.20
2019-02-22T03:39:01.790Z,2.60
2019-02-22T03:40:01.775Z,2.40
2019-02-22T03:41:01.775Z,2.20
2019-02-22T03:42:01.751Z,2.00
2019-02-22T03:43:01.749Z,2.00
2019-02-22T03:44:01.730Z,2.10
2019-02-22T03:45:01.732Z,2.50
2019-02-22T03:46:01.706Z,2.00
2019-02-22T03:47:01.706Z,2.00
2019-02-22T03:48:01.690Z,2.20
2019-02-22T03:49:01.696Z,2.20
2019-02-22T03:50:01.664Z,2.30
2019-02-22T03:51:01.661Z,2.30
2019-02-22T03:52:01.642Z,2.40
2019-02-22T03:53:01.630Z,2.10
2019-02-22T03:54:01.633Z,2.40
2019-02-22T03:55:01.616Z,2.30
2019-02-22T03:56:01.601Z,2.10
2019-02-22T03:57:01.585Z,2.10
2019-02-22T03:58:01.577Z,1.90
2019-02-22T03:59:01.562Z,2.00
2019-02-22T04:00:01.555Z,2.10
2019-02-22T04:01:01.540Z,2.20
2019-02-22T04:02:01.538Z,2.10
2019-02-22T04:03:01.518Z,2.30
2019-02-22T04:04:01.515Z,2.00
2019-02-22T04:05:01.519Z,1.90
2019-02-22T04:06:01.499Z,2.60
2019-02-22T04:07:01.481Z,2.00
2019-02-22T04:08:01.465Z,2.10
2019-02-22T04:09:01.455Z,2.10
2019-02-22T04:10:01.439Z,1.80
2019-02-22T04:11:01.431Z,2.30
2019-02-22T04:12:01.421Z,2.10
2019-02-22T04:13:01.446Z,2.20
2019-02-22T04:14:01.397Z,2.00
2019-02-22T04:15:01.386Z,2.20
2019-02-22T04:16:01.372Z,2.30
2019-02-22T04:17:01.374Z,2.10
2019-02-22T04:18:01.354Z,1.80
2019-02-22T04:19:01.348Z,2.00
2019-02-22T04:20:01.331Z,2.00
2019-02-22T04:21:01.327Z,2.20
2019-02-22T04:22:01.308Z,1.90
2019-02-22T04:23:01.306Z,1.80
2019-02-22T04:24:01.286Z,1.60
2019-02-22T04:25:01.287Z,1.80
2019-02-22T04:26:01.265Z,2.20
2019-02-22T04:27:01.259Z,2.30
2019-02-22T04:28:01.267Z,2.10
2019-02-22T04:29:01.231Z,2.00
2019-02-22T04:30:01.247Z,1.90
2019-02-22T04:31:01.207Z,2.30
2019-02-22T04:32:01.209Z,2.20
2019-02-22T04:33:01.184Z,1.70
2019-02-22T04:34:01.197Z,1.70
2019-02-22T04:35:01.168Z,2.00
2019-02-22T04:36:01.149Z,1.90
2019-02-22T04:37:01.139Z,1.80
2019-02-22T04:38:01.133Z,1.80
2019-02-22T04:39:01.116Z,1.90
2019-02-22T04:40:01.115Z,2.00
2019-02-22T04:41:01.098Z,2.00
2019-02-22T04:42:01.092Z,1.60
2019-02-22T04:43:01.086Z,1.90
2019-02-22T04:44:01.061Z,1.90
2019-02-22T04:45:01.055Z,1.90
2019-02-22T04:46:01.044Z,1.40
2019-02-22T04:47:01.039Z,1.70
2019-02-22T04:48:01.021Z,2.10
2019-02-22T04:49:01.007Z,2.00
2019-02-22T04:50:01.006Z,1.90
2019-02-22T04:51:00.986Z,1.80
2019-02-22T04:52:00.974Z,1.90
2019-02-22T04:53:00.960Z,1.70
2019-02-22T04:54:00.951Z,1.80
2019-02-22T04:55:00.945Z,1.70
2019-02-22T04:56:00.948Z,2.20
2019-02-22T04:57:00.921Z,2.10
2019-02-22T04:58:00.913Z,1.80
2019-02-22T04:59:00.898Z,1.80
2019-02-22T05:00:00.887Z,1.60
2019-02-22T05:01:00.885Z,1.40
2019-02-22T05:02:00.866Z,2.10
2019-02-22T05:03:00.863Z,1.90
2019-02-22T05:04:00.842Z,2.00
2019-02-22T05:05:00.833Z,2.10
2019-02-22T05:06:00.819Z,1.90
2019-02-22T05:07:00.811Z,2.10
2019-02-22T05:08:00.799Z,2.00
2019-02-22T05:09:00.789Z,2.00
2019-02-22T05:10:00.775Z,2.30
2019-02-22T05:11:00.768Z,2.30
2019-02-22T05:12:10.534Z,2.10
2019-02-22T05:13:01.747Z,2.10
2019-02-22T05:14:00.734Z,1.90
2019-02-22T05:15:11.833Z,1.80
2019-02-22T05:16:01.708Z,1.80
2019-02-22T05:17:00.713Z,2.00
2019-02-22T05:18:00.691Z,2.20
2019-02-22T05:19:00.692Z,2.10
2019-02-22T05:20:00.673Z,1.90
2019-02-22T05:21:00.655Z,1.90
2019-02-22T05:22:00.646Z,2.10
2019-02-22T05:23:04.462Z,2.10
2019-02-22T05:24:01.624Z,2.40
2019-02-22T05:25:00.612Z,2.40
2019-02-22T05:26:00.607Z,2.50
2019-02-22T05:27:00.599Z,2.00
2019-02-22T05:28:00.589Z,2.10
2019-02-22T05:29:00.568Z,2.20
2019-02-22T05:30:00.558Z,2.00
2019-02-22T05:31:00.548Z,2.10
2019-02-22T05:32:00.539Z,2.30
2019-02-22T05:33:00.522Z,2.00
2019-02-22T05:34:00.514Z,1.90
2019-02-22T05:35:00.512Z,2.20
2019-02-22T05:36:00.501Z,1.90
2019-02-22T05:37:00.494Z,2.40
2019-02-22T05:38:00.470Z,2.10
2019-02-22T05:39:00.460Z,2.30
2019-02-22T05:40:00.559Z,2.40
2019-02-22T05:41:00.438Z,2.30
2019-02-22T05:42:00.437Z,2.30
2019-02-22T05:43:00.420Z,2.10
2019-02-22T05:44:00.401Z,2.50
2019-02-22T05:45:00.446Z,2.60
2019-02-22T05:46:00.395Z,2.40
2019-02-22T05:47:00.809Z,2.10
2019-02-22T05:48:00.368Z,2.30
2019-02-22T05:49:00.357Z,2.00
2019-02-22T05:50:00.340Z,2.40
2019-02-22T05:51:00.328Z,1.80
2019-02-22T05:52:00.316Z,2.10
2019-02-22T05:53:00.303Z,2.10
2019-02-22T05:54:00.306Z,2.30
2019-02-22T05:55:00.341Z,2.10
2019-02-22T05:56:00.273Z,1.90
2019-02-22T05:57:00.262Z,2.20
2019-02-22T05:58:00.252Z,1.90
2019-02-22T05:59:00.246Z,2.40
2019-02-22T06:00:00.336Z,2.20
2019-02-22T06:01:00.222Z,2.20
2019-02-22T06:02:00.207Z,1.90
2019-02-22T06:03:00.196Z,2.10
2019-02-22T06:04:00.272Z,2.10
2019-02-22T06:05:00.317Z,2.20
2019-02-22T06:06:00.201Z,1.90
2019-02-22T06:07:00.151Z,2.20
2019-02-22T06:08:00.143Z,2.40
2019-02-22T06:09:00.131Z,2.40
2019-02-22T06:10:00.335Z,2.40
2019-02-22T06:11:00.114Z,2.50
2019-02-22T06:12:00.120Z,2.30
2019-02-22T06:13:00.085Z,2.20
2019-02-22T06:14:00.076Z,2.40
2019-02-22T06:15:00.158Z,2.50
2019-02-22T06:16:00.061Z,2.40
2019-02-22T06:17:00.056Z,2.40
2019-02-22T06:18:00.033Z,2.20
2019-02-22T06:19:00.019Z,2.40
2019-02-22T06:20:00.009Z,2.40
2019-02-22T06:21:00.004Z,2.40
2019-02-22T06:21:59.994Z,2.60
2019-02-22T06:22:59.976Z,2.20
2019-02-22T06:24:02.615Z,2.50
2019-02-22T06:24:59.955Z,2.20
2019-02-22T06:25:59.948Z,2.40
2019-02-22T06:26:59.936Z,2.40
2019-02-22T06:27:59.935Z,2.40
2019-02-22T06:28:59.915Z,2.20
2019-02-22T06:29:59.897Z,2.70
2019-02-22T06:30:59.888Z,4.00
2019-02-22T06:31:59.892Z,4.20
2019-02-22T06:32:59.872Z,4.40
2019-02-22T06:33:59.876Z,4.60
2019-02-22T06:34:59.842Z,3.50
2019-02-22T06:35:59.833Z,4.20
2019-02-22T06:37:02.219Z,4.30
2019-02-22T06:37:59.812Z,4.50
2019-02-22T06:38:59.804Z,4.50
2019-02-22T06:39:59.810Z,4.00
2019-02-22T06:40:59.779Z,4.20
2019-02-22T06:41:59.765Z,4.20
2019-02-22T06:42:59.760Z,3.20
2019-02-22T06:43:59.745Z,4.10
2019-02-22T06:44:59.739Z,3.50
2019-02-22T06:45:59.724Z,3.80
2019-02-22T06:46:59.710Z,4.20
2019-02-22T06:47:59.701Z,3.80
2019-02-22T06:48:59.697Z,4.10
2019-02-22T06:49:59.683Z,3.60
2019-02-22T06:50:59.677Z,3.50
2019-02-22T06:51:59.660Z,3.70
2019-02-22T06:52:59.645Z,3.60
2019-02-22T06:53:59.639Z,3.10
2019-02-22T06:54:59.628Z,3.80
2019-02-22T06:55:59.632Z,3.90
2019-02-22T06:56:59.619Z,3.20
2019-02-22T06:57:59.627Z,3.30
2019-02-22T06:58:59.580Z,3.90
2019-02-22T06:59:59.571Z,3.00
2019-02-22T07:00:59.563Z,3.30
2019-02-22T07:01:59.552Z,3.20
2019-02-22T07:02:59.541Z,3.60
2019-02-22T07:03:59.526Z,3.70
2019-02-22T07:04:59.518Z,3.20
2019-02-22T07:05:59.504Z,3.20
2019-02-22T07:06:59.503Z,3.60
2019-02-22T07:07:59.492Z,3.40
2019-02-22T07:08:59.478Z,3.40
2019-02-22T07:09:59.458Z,3.10
2019-02-22T07:10:59.450Z,3.20
2019-02-22T07:11:59.437Z,2.90
2019-02-22T07:12:59.425Z,3.40
2019-02-22T07:13:59.434Z,3.10
2019-02-22T07:14:59.416Z,3.10
2019-02-22T07:15:59.392Z,3.40
2019-02-22T07:16:59.385Z,3.10
2019-02-22T07:17:59.368Z,3.40
2019-02-22T07:18:59.358Z,2.90
2019-02-22T07:19:59.352Z,3.20
2019-02-22T07:20:59.335Z,3.00
2019-02-22T07:21:59.324Z,2.80
2019-02-22T07:22:59.315Z,3.00
2019-02-22T07:23:59.309Z,2.90
2019-02-22T07:24:59.293Z,3.20
2019-02-22T07:25:59.285Z,2.90
2019-02-22T07:26:59.272Z,2.90
2019-02-22T07:27:59.261Z,3.00
2019-02-22T07:28:59.252Z,2.60
2019-02-22T07:29:59.246Z,2.80
2019-02-22T07:30:59.228Z,2.60
2019-02-22T07:32:06.015Z,2.70
2019-02-22T07:33:00.208Z,2.90
2019-02-22T07:33:59.210Z,3.30
2019-02-22T07:34:59.191Z,3.60
2019-02-22T07:35:59.185Z,2.90
2019-02-22T07:36:59.168Z,4.00
2019-02-22T07:37:59.163Z,4.30
2019-02-22T07:38:59.184Z,4.10
2019-02-22T07:39:59.135Z,4.30
2019-02-22T07:40:59.119Z,3.90
2019-02-22T07:41:59.108Z,3.70
2019-02-22T07:43:07.700Z,3.60
2019-02-22T07:44:00.087Z,3.90
2019-02-22T07:44:59.076Z,3.80
2019-02-22T07:45:59.064Z,3.60
2019-02-22T07:46:59.058Z,3.70
2019-02-22T07:47:59.043Z,3.00
2019-02-22T07:48:59.033Z,3.50
2019-02-22T07:49:59.020Z,3.20
2019-02-22T07:50:59.022Z,3.30
2019-02-22T07:51:59.004Z,3.40
2019-02-22T07:52:58.997Z,3.50
2019-02-22T07:53:58.977Z,3.90
2019-02-22T07:54:58.970Z,3.50
2019-02-22T07:55:58.957Z,3.20
2019-02-22T07:56:58.944Z,3.20
2019-02-22T07:57:58.936Z,3.30
2019-02-22T07:58:58.946Z,3.10
2019-02-22T07:59:58.912Z,2.80
2019-02-22T08:00:58.911Z,2.90
2019-02-22T08:01:58.892Z,3.10
2019-02-22T08:02:58.878Z,2.90
2019-02-22T08:03:58.889Z,2.80
2019-02-22T08:04:58.891Z,2.70
2019-02-22T08:05:58.849Z,3.10
2019-02-22T08:06:58.844Z,3.00
2019-02-22T08:07:58.834Z,2.90
2019-02-22T08:08:59.418Z,2.60
2019-02-22T08:09:58.812Z,2.60
2019-02-22T08:10:58.793Z,2.70
2019-02-22T08:11:58.781Z,2.70
2019-02-22T08:12:58.771Z,2.80
2019-02-22T08:13:58.777Z,2.70
2019-02-22T08:14:58.757Z,2.50
2019-02-22T08:15:58.739Z,2.70
2019-02-22T08:16:58.736Z,2.90
2019-02-22T08:17:58.718Z,2.60
2019-02-22T08:19:01.865Z,2.60
2019-02-22T08:19:58.697Z,2.10
2019-02-22T08:20:58.692Z,2.10
2019-02-22T08:22:00.207Z,2.60
2019-02-22T08:22:58.682Z,2.80
2019-02-22T08:23:58.656Z,2.40
2019-02-22T08:24:58.650Z,2.40
2019-02-22T08:25:58.634Z,2.50
2019-02-22T08:26:58.625Z,2.50
2019-02-22T08:27:58.613Z,2.30
2019-02-22T08:28:58.600Z,2.20
2019-02-22T08:29:58.599Z,2.20
2019-02-22T08:30:58.579Z,2.40
2019-02-22T08:31:58.565Z,2.40
2019-02-22T08:32:58.557Z,2.40
2019-02-22T08:33:58.547Z,2.40
2019-02-22T08:34:58.540Z,2.20
2019-02-22T08:35:58.521Z,2.30
2019-02-22T08:36:58.513Z,2.10
2019-02-22T08:37:58.506Z,2.00
2019-02-22T08:38:58.489Z,2.40
2019-02-22T08:39:59.066Z,2.40
2019-02-22T08:40:58.473Z,2.20
2019-02-22T08:41:58.471Z,2.30
2019-02-22T08:42:58.448Z,2.20
2019-02-22T08:43:58.442Z,2.80
2019-02-22T08:44:58.425Z,2.30
2019-02-22T08:45:58.416Z,2.60
2019-02-22T08:46:58.409Z,1.90
2019-02-22T08:47:58.395Z,2.00
2019-02-22T08:48:58.385Z,2.20
2019-02-22T08:49:58.371Z,2.00
2019-02-22T08:50:58.366Z,2.20
2019-02-22T08:51:58.350Z,2.20
2019-02-22T08:52:58.343Z,1.90
2019-02-22T08:53:58.330Z,2.10
2019-02-22T08:54:58.321Z,1.90
2019-02-22T08:55:58.304Z,1.80
2019-02-22T08:56:58.308Z,1.90
2019-02-22T08:57:58.287Z,1.80
2019-02-22T08:58:58.286Z,1.80
2019-02-22T08:59:58.263Z,2.00
2019-02-22T09:00:58.257Z,1.80
2019-02-22T09:01:58.242Z,1.70
2019-02-22T09:02:58.232Z,2.00
2019-02-22T09:03:58.217Z,1.50
2019-02-22T09:04:58.231Z,1.80
2019-02-22T09:05:58.196Z,1.70
2019-02-22T09:06:58.202Z,2.00
2019-02-22T09:07:58.177Z,1.80
2019-02-22T09:08:58.171Z,2.10
2019-02-22T09:09:58.155Z,1.60
2019-02-22T09:11:00.822Z,1.80
2019-02-22T09:11:58.134Z,1.70
2019-02-22T09:12:58.118Z,2.00
2019-02-22T09:13:58.115Z,1.90
2019-02-22T09:14:58.098Z,1.70
2019-02-22T09:15:58.094Z,1.80
2019-02-22T09:16:58.086Z,1.60
2019-02-22T09:17:58.066Z,1.60
2019-02-22T09:18:58.051Z,2.00
2019-02-22T09:19:58.053Z,1.70
2019-02-22T09:20:58.036Z,1.70
2019-02-22T09:21:58.034Z,2.00
2019-02-22T09:22:58.015Z,1.70
2019-02-22T09:23:57.998Z,2.00
2019-02-22T09:24:57.987Z,1.60
2019-02-22T09:25:57.976Z,1.70
2019-02-22T09:26:57.967Z,1.60
2019-02-22T09:27:57.969Z,1.40
2019-02-22T09:28:57.946Z,1.80
2019-02-22T09:29:59.242Z,1.80
2019-02-22T09:30:57.920Z,1.70
2019-02-22T09:31:57.938Z,1.40
2019-02-22T09:32:57.915Z,1.70
2019-02-22T09:33:57.895Z,1.40
2019-02-22T09:34:57.877Z,1.60
2019-02-22T09:35:57.947Z,1.90
2019-02-22T09:36:57.861Z,1.40
2019-02-22T09:37:57.843Z,1.50
2019-02-22T09:38:57.840Z,1.50
2019-02-22T09:39:57.832Z,1.80
2019-02-22T09:40:57.820Z,1.60
2019-02-22T09:41:57.799Z,1.20
2019-02-22T09:42:57.787Z,2.10
2019-02-22T09:43:57.786Z,1.60
2019-02-22T09:44:57.777Z,1.40
2019-02-22T09:45:57.785Z,1.40
2019-02-22T09:46:57.757Z,1.50
2019-02-22T09:47:57.733Z,1.70
2019-02-22T09:48:57.792Z,1.80
2019-02-22T09:49:57.709Z,1.20
2019-02-22T09:50:57.714Z,1.50
2019-02-22T09:51:57.687Z,1.60
2019-02-22T09:52:57.675Z,1.60
2019-02-22T09:53:57.671Z,1.80
2019-02-22T09:54:57.667Z,1.70
2019-02-22T09:55:57.650Z,1.40
2019-02-22T09:56:57.656Z,1.40
2019-02-22T09:57:57.622Z,1.60
2019-02-22T09:58:57.609Z,1.60
2019-02-22T09:59:57.598Z,1.60
2019-02-22T10:00:57.593Z,1.60
2019-02-22T10:01:57.588Z,1.70
2019-02-22T10:02:57.641Z,2.10
2019-02-22T10:03:57.552Z,1.60
2019-02-22T10:04:57.543Z,1.90
2019-02-22T10:05:57.547Z,1.90
2019-02-22T10:06:57.521Z,1.90
2019-02-22T10:07:57.527Z,1.90
2019-02-22T10:08:57.497Z,1.80
2019-02-22T10:09:57.492Z,2.00
2019-02-22T10:10:57.480Z,1.80
2019-02-22T10:11:57.488Z,1.90
2019-02-22T10:12:57.460Z,1.80
2019-02-22T10:14:06.349Z,2.30
2019-02-22T10:14:58.433Z,1.90
2019-02-22T10:15:57.423Z,2.00
2019-02-22T10:16:57.475Z,1.60
2019-02-22T10:17:57.434Z,1.80
2019-02-22T10:18:57.399Z,2.20
2019-02-22T10:19:57.375Z,1.70
2019-02-22T10:20:57.365Z,1.60
2019-02-22T10:21:57.796Z,1.80
2019-02-22T10:22:57.349Z,1.70
2019-02-22T10:23:57.333Z,1.40
2019-02-22T10:24:57.338Z,1.70
2019-02-22T10:25:57.311Z,1.80
2019-02-22T10:26:57.389Z,1.90
2019-02-22T10:27:57.286Z,1.40
2019-02-22T10:28:57.275Z,2.40
2019-02-22T10:29:57.279Z,2.30
2019-02-22T10:30:57.279Z,2.20
2019-02-22T10:31:57.245Z,2.40
2019-02-22T10:32:57.233Z,2.50
2019-02-22T10:33:57.230Z,2.30
2019-02-22T10:34:57.212Z,2.10
2019-02-22T10:35:57.209Z,2.70
2019-02-22T10:36:57.197Z,2.20
2019-02-22T10:37:57.176Z,2.10
2019-02-22T10:38:57.167Z,2.00
2019-02-22T10:39:57.158Z,1.90
2019-02-22T10:40:57.152Z,2.10
2019-02-22T10:41:57.153Z,2.20
2019-02-22T10:42:57.130Z,2.00
2019-02-22T10:43:57.112Z,1.80
2019-02-22T10:44:57.105Z,1.80
2019-02-22T10:45:57.090Z,2.10
2019-02-22T10:46:57.079Z,2.00
2019-02-22T10:47:57.068Z,1.80
2019-02-22T10:48:57.055Z,2.30
2019-02-22T10:49:57.045Z,1.80
2019-02-22T10:50:59.283Z,2.10
2019-02-22T10:51:57.026Z,2.10
2019-02-22T10:53:02.250Z,1.90
2019-02-22T10:53:57.999Z,2.10
2019-02-22T10:54:56.990Z,1.60
2019-02-22T10:55:56.979Z,2.10
2019-02-22T10:56:57.003Z,2.10
2019-02-22T10:57:56.963Z,1.90
2019-02-22T10:58:56.955Z,2.20
2019-02-22T10:59:56.940Z,1.70
2019-02-22T11:00:56.944Z,2.00
2019-02-22T11:01:56.911Z,1.80
2019-02-22T11:02:56.899Z,1.80
2019-02-22T11:03:56.903Z,1.90
2019-02-22T11:04:56.881Z,1.90
2019-02-22T11:05:56.876Z,1.90
2019-02-22T11:06:56.855Z,1.80
2019-02-22T11:07:56.848Z,2.30
2019-02-22T11:08:56.836Z,1.70
2019-02-22T11:09:56.837Z,1.70
2019-02-22T11:10:56.816Z,1.80
2019-02-22T11:11:56.803Z,1.80
2019-02-22T11:12:56.791Z,1.40
2019-02-22T11:13:56.795Z,2.00
2019-02-22T11:14:56.772Z,2.10
2019-02-22T11:15:56.774Z,2.00
2019-02-22T11:16:56.750Z,1.50
2019-02-22T11:17:56.738Z,2.00
2019-02-22T11:18:56.743Z,1.80
2019-02-22T11:19:56.721Z,1.90
2019-02-22T11:20:56.713Z,1.60
2019-02-22T11:21:56.691Z,1.80
2019-02-22T11:22:56.759Z,1.90
2019-02-22T11:23:56.668Z,1.90
2019-02-22T11:24:56.668Z,1.70
2019-02-22T11:25:56.651Z,2.10
2019-02-22T11:26:56.660Z,2.00
2019-02-22T11:27:56.626Z,2.20
2019-02-22T11:28:56.620Z,1.90
2019-02-22T11:29:56.605Z,2.30
2019-02-22T11:30:56.595Z,2.60
2019-02-22T11:31:56.597Z,2.60
2019-02-22T11:32:56.576Z,3.00
2019-02-22T11:33:56.563Z,2.60
2019-02-22T11:34:56.548Z,4.50
2019-02-22T11:35:56.538Z,3.10
2019-02-22T11:36:56.536Z,3.00
2019-02-22T11:37:56.531Z,2.60
2019-02-22T11:38:56.515Z,2.40
2019-02-22T11:39:56.489Z,2.80
2019-02-22T11:40:56.541Z,2.50
2019-02-22T11:41:56.469Z,2.40
2019-02-22T11:42:56.544Z,2.30
2019-02-22T11:43:56.449Z,2.30
2019-02-22T11:44:56.537Z,2.20
2019-02-22T11:45:56.443Z,2.40
2019-02-22T11:46:56.444Z,2.10
2019-02-22T11:50:14.016Z,2.10
2019-02-22T11:51:14.002Z,2.30
2019-02-22T11:52:44.476Z,2.20
2019-02-22T11:53:44.454Z,1.90
2019-02-22T11:55:14.926Z,1.90
2019-02-22T11:56:14.897Z,2.20
2019-02-22T11:57:45.416Z,1.80
2019-02-22T11:58:45.353Z,1.80
2019-02-22T12:00:15.807Z,2.50
2019-02-22T12:01:15.792Z,2.20
2019-02-22T12:02:15.788Z,2.00
2019-02-22T12:03:24.316Z,2.10
2019-02-22T12:04:16.763Z,2.10
2019-02-22T12:05:15.767Z,2.00
2019-02-22T12:06:15.746Z,1.90
2019-02-22T12:07:15.735Z,2.10
2019-02-22T12:08:15.724Z,1.90
2019-02-22T12:09:15.712Z,2.00
2019-02-22T12:10:15.707Z,1.80
2019-02-22T12:11:15.688Z,1.50
2019-02-22T12:12:15.680Z,1.80
2019-02-22T12:13:15.668Z,1.60
2019-02-22T12:14:15.674Z,2.00
2019-02-22T12:15:15.645Z,1.60
2019-02-22T12:16:15.648Z,1.80
2019-02-22T12:17:15.624Z,1.40
2019-02-22T12:18:15.625Z,1.80
2019-02-22T12:19:15.604Z,1.50
2019-02-22T12:20:15.600Z,1.90
2019-02-22T12:21:15.582Z,1.60
2019-02-22T12:22:15.588Z,1.50
2019-02-22T12:23:15.588Z,1.50
2019-02-22T12:24:15.571Z,1.90
2019-02-22T12:25:15.547Z,1.40
2019-02-22T12:26:15.535Z,1.60
2019-02-22T12:27:15.523Z,1.40
2019-02-22T12:28:15.516Z,1.50
2019-02-22T12:29:15.504Z,1.70
2019-02-22T12:30:15.524Z,1.70
2019-02-22T12:31:15.479Z,1.40
2019-02-22T12:32:15.496Z,1.70
2019-02-22T12:33:15.465Z,1.80
2019-02-22T12:34:15.470Z,1.80
2019-02-22T12:35:15.435Z,1.90
2019-02-22T12:36:15.442Z,1.90
2019-02-22T12:37:15.421Z,1.60
2019-02-22T12:38:15.403Z,1.60
2019-02-22T12:39:15.393Z,1.90
2019-02-22T12:40:15.382Z,1.80
2019-02-22T12:41:15.389Z,1.70
2019-02-22T12:42:15.363Z,1.60
2019-02-22T12:43:15.352Z,1.90
2019-02-22T12:44:15.385Z,1.90
2019-02-22T12:45:15.332Z,1.70
2019-02-22T12:46:15.318Z,1.70
2019-02-22T12:47:15.311Z,1.40
2019-02-22T12:48:15.297Z,1.80
2019-02-22T12:49:15.294Z,1.60
2019-02-22T12:50:15.279Z,1.20
2019-02-22T12:51:15.275Z,1.80
2019-02-22T12:52:15.267Z,1.60
2019-02-22T12:53:15.246Z,1.60
2019-02-22T12:54:15.231Z,1.60
2019-02-22T12:55:15.231Z,1.80
2019-02-22T12:56:15.214Z,1.60
2019-02-22T12:57:15.213Z,1.80
2019-02-22T12:58:15.192Z,1.60
2019-02-22T12:59:15.184Z,1.60
2019-02-22T13:00:15.168Z,1.80
2019-02-22T13:01:15.153Z,1.80
2019-02-22T13:02:15.155Z,1.80
2019-02-22T13:03:15.136Z,1.80
2019-02-22T13:04:15.126Z,1.50
2019-02-22T13:05:15.112Z,1.80
2019-02-22T13:06:15.102Z,1.60
2019-02-22T13:07:15.093Z,1.80
2019-02-22T13:08:15.089Z,1.90
2019-02-22T13:09:15.072Z,1.80
2019-02-22T13:10:15.060Z,1.90
2019-02-22T13:11:15.048Z,1.70
2019-02-22T13:12:17.324Z,1.90
2019-02-22T13:13:15.041Z,1.50
2019-02-22T13:14:15.029Z,1.80
2019-02-22T13:15:15.006Z,1.60
2019-02-22T13:16:14.995Z,1.40
2019-02-22T13:17:14.985Z,1.70
2019-02-22T13:18:14.974Z,1.60
2019-02-22T13:19:14.965Z,1.50
2019-02-22T13:20:14.953Z,1.90
2019-02-22T13:21:14.941Z,1.80
2019-02-22T13:22:14.934Z,2.00